createdAt,value
2022-08-12T00:00:14.177Z,2.30
2022-08-12T00:05:35.019Z,2.40
2022-08-12T00:10:55.335Z,2.33
2022-08-12T00:16:15.488Z,2.40
2022-08-12T00:21:39.722Z,2.38
2022-08-12T00:27:01.836Z,2.80
2022-08-12T00:32:36.018Z,2.30
2022-08-12T00:37:57.178Z,4.85
2022-08-12T00:42:59.702Z,2.17
2022-08-12T00:48:01.320Z,2.40
2022-08-12T00:53:03.612Z,2.10
2022-08-12T00:58:05.703Z,2.30
2022-08-12T01:03:10.068Z,2.10
2022-08-12T01:08:29.931Z,2.40
2022-08-12T01:13:33.676Z,2.20
2022-08-12T01:18:42.111Z,2.47
2022-08-12T01:24:28.879Z,2.38
2022-08-12T01:29:32.947Z,2.25
2022-08-12T01:34:38.339Z,2.10
2022-08-12T01:40:34.313Z,2.40
2022-08-12T01:45:06.512Z,2.20
2022-08-12T01:51:05.290Z,2.30
2022-08-12T01:56:09.300Z,2.00
2022-08-12T02:01:12.158Z,2.50
2022-08-12T02:06:38.650Z,2.13
2022-08-12T02:11:53.805Z,2.63
2022-08-12T02:17:08.636Z,2.80
2022-08-12T02:22:29.676Z,2.60
2022-08-12T02:27:51.852Z,4.90
2022-08-12T02:32:54.602Z,2.20
2022-08-12T02:38:01.192Z,2.53
2022-08-12T02:43:22.682Z,2.38
2022-08-12T02:48:47.324Z,2.20
2022-08-12T02:54:04.392Z,2.33
2022-08-12T02:59:14.341Z,2.38
2022-08-12T03:04:48.017Z,2.58
2022-08-12T03:10:15.979Z,2.28
2022-08-12T03:15:22.882Z,2.45
2022-08-12T03:20:28.440Z,2.47
2022-08-12T03:25:31.718Z,2.60
2022-08-12T03:30:33.412Z,2.67
2022-08-12T03:35:40.319Z,2.63
2022-08-12T03:41:15.928Z,2.60
2022-08-12T03:46:42.360Z,2.70
2022-08-12T03:52:03.635Z,2.50
2022-08-12T03:57:24.157Z,3.10
2022-08-12T04:02:26.618Z,3.03
2022-08-12T04:07:29.997Z,3.95
2022-08-12T04:12:50.337Z,4.95
2022-08-12T04:18:06.620Z,2.78
2022-08-12T04:23:16.785Z,3.20
2022-08-12T04:28:25.502Z,3.00
2022-08-12T04:33:27.400Z,2.58
2022-08-12T04:38:30.025Z,2.67
2022-08-12T04:44:00.375Z,3.33
2022-08-12T04:48:54.326Z,2.65
2022-08-12T04:53:56.143Z,3.22
2022-08-12T04:58:58.526Z,3.05
2022-08-12T05:04:00.495Z,3.22
2022-08-12T05:09:02.381Z,2.65
2022-08-12T05:14:13.290Z,3.22
2022-08-12T05:19:18.444Z,2.70
2022-08-12T05:24:22.736Z,3.30
2022-08-12T05:30:06.372Z,2.95
2022-08-12T05:34:47.982Z,3.00
2022-08-12T05:39:50.273Z,3.00
2022-08-12T05:44:52.028Z,3.70
2022-08-12T05:49:53.610Z,3.13
2022-08-12T05:54:57.830Z,2.40
2022-08-12T05:59:59.657Z,3.00
2022-08-12T06:05:02.364Z,2.50
2022-08-12T06:10:05.509Z,3.03
2022-08-12T06:15:07.424Z,2.42
2022-08-12T06:20:27.501Z,2.50
2022-08-12T06:25:31.778Z,2.45
2022-08-12T06:30:38.327Z,2.88
2022-08-12T06:35:48.909Z,2.85
2022-08-12T06:41:14.987Z,2.75
2022-08-12T06:46:17.044Z,2.60
2022-08-12T06:51:20.692Z,2.58
2022-08-12T06:56:34.964Z,2.85
2022-08-12T07:01:50.891Z,2.15
2022-08-12T07:06:55.774Z,2.50
2022-08-12T07:11:57.342Z,2.47
2022-08-12T07:17:02.351Z,2.65
2022-08-12T07:22:06.387Z,2.65
2022-08-12T07:27:07.953Z,2.22
2022-08-12T07:32:09.566Z,3.10
2022-08-12T07:37:11.150Z,2.47
2022-08-12T07:42:12.789Z,2.53
2022-08-12T07:47:14.380Z,2.55
2022-08-12T07:52:17.027Z,2.70
2022-08-12T07:57:18.584Z,2.55
2022-08-12T08:02:20.438Z,2.80
2022-08-12T08:07:30.722Z,3.65
2022-08-12T08:12:51.156Z,4.72
2022-08-12T08:18:02.765Z,2.45
2022-08-12T08:23:07.948Z,2.30
2022-08-12T08:28:12.527Z,2.25
2022-08-12T08:33:23.464Z,2.97
2022-08-12T08:38:35.527Z,2.20
2022-08-12T08:43:44.053Z,2.35
2022-08-12T08:48:46.398Z,2.25
2022-08-12T08:53:51.831Z,2.00
2022-08-12T08:58:54.550Z,2.55
2022-08-12T09:05:07.237Z,1.60
2022-08-12T09:09:18.328Z,2.47
2022-08-12T09:14:29.482Z,2.80
2022-08-12T09:19:31.217Z,1.90
2022-08-12T09:24:36.226Z,1.70
2022-08-12T09:30:12.001Z,2.10
2022-08-12T09:34:59.326Z,1.42
2022-08-12T09:40:57.912Z,1.75
2022-08-12T09:45:24.606Z,1.42
2022-08-12T09:50:50.734Z,1.20
2022-08-12T09:56:07.112Z,1.50
2022-08-12T10:01:23.176Z,1.60
2022-08-12T10:06:35.911Z,1.52
2022-08-12T10:12:11.347Z,1.60
2022-08-12T10:17:14.541Z,1.58
2022-08-12T10:22:17.248Z,1.80
2022-08-12T10:28:05.406Z,3.80
2022-08-12T10:33:18.844Z,1.60
2022-08-12T10:38:36.604Z,1.52
2022-08-12T10:43:56.600Z,1.60
2022-08-12T10:49:05.503Z,1.67
2022-08-12T10:54:10.142Z,1.85
2022-08-12T10:59:15.865Z,2.03
2022-08-12T11:04:35.932Z,1.60
2022-08-12T11:09:41.460Z,1.63
2022-08-12T11:14:53.473Z,1.67
2022-08-12T11:19:56.263Z,1.38
2022-08-12T11:24:57.800Z,1.60
2022-08-12T11:30:05.369Z,1.70
2022-08-12T11:35:09.350Z,1.63
2022-08-12T11:40:13.363Z,1.50
2022-08-12T11:45:16.362Z,1.40
2022-08-12T11:50:20.451Z,1.60
2022-08-12T11:55:23.273Z,1.58
2022-08-12T12:05:46.888Z,1.50
2022-08-12T12:10:52.073Z,1.65
2022-08-12T12:15:53.710Z,1.70
2022-08-12T12:20:58.698Z,1.77
2022-08-12T12:26:08.185Z,1.58
2022-08-12T12:31:15.097Z,1.85
2022-08-12T12:36:32.945Z,1.90
2022-08-12T12:42:43.229Z,1.70
2022-08-12T12:46:56.885Z,1.85
2022-08-12T12:52:19.727Z,1.77
2022-08-12T12:57:21.589Z,1.60
2022-08-12T13:02:40.287Z,3.35
2022-08-12T13:07:54.306Z,3.10
2022-08-12T13:12:56.978Z,1.60
2022-08-12T13:18:05.117Z,1.67
2022-08-12T13:23:37.313Z,1.60
2022-08-12T13:28:31.606Z,1.80
2022-08-12T13:34:32.316Z,1.42
2022-08-12T13:38:57.483Z,1.45
2022-08-12T13:44:00.050Z,1.67
2022-08-12T13:49:04.819Z,1.50
2022-08-12T13:54:11.598Z,1.45
2022-08-12T13:59:16.095Z,1.40
2022-08-12T14:04:18.296Z,1.60
2022-08-12T14:09:21.832Z,1.58
2022-08-12T14:14:24.456Z,1.60
2022-08-12T14:19:27.105Z,1.45
2022-08-12T14:24:40.782Z,1.63
2022-08-12T14:30:05.548Z,1.70
2022-08-12T14:35:09.636Z,1.60
2022-08-12T14:40:18.662Z,1.38
2022-08-12T14:45:44.817Z,1.50
2022-08-12T14:51:09.544Z,1.50
2022-08-12T14:56:59.552Z,1.42
2022-08-12T15:01:40.118Z,1.42
2022-08-12T15:06:52.607Z,1.40
2022-08-12T15:12:03.933Z,1.45
2022-08-12T15:17:07.699Z,1.60
2022-08-12T15:22:38.644Z,1.63
2022-08-12T15:28:10.928Z,3.20
2022-08-12T15:32:59.181Z,1.45
2022-08-12T15:38:09.159Z,1.77
2022-08-12T15:44:17.055Z,1.80
2022-08-12T15:48:37.530Z,1.40
2022-08-12T15:53:57.696Z,1.50
2022-08-12T15:58:59.623Z,1.50
2022-08-12T16:04:01.267Z,1.33
2022-08-12T16:09:02.868Z,1.40
2022-08-12T16:14:09.580Z,1.42
2022-08-12T16:20:01.751Z,1.50
2022-08-12T16:24:39.019Z,1.50
2022-08-12T16:29:54.288Z,1.30
2022-08-12T16:34:57.557Z,1.40
2022-08-12T16:40:06.155Z,1.60
2022-08-12T16:45:09.867Z,1.60
2022-08-12T16:50:15.373Z,1.33
2022-08-12T16:55:18.660Z,1.40
2022-08-12T17:00:20.514Z,1.38
2022-08-12T17:05:25.075Z,1.52
2022-08-12T17:10:37.025Z,1.40
2022-08-12T17:15:56.810Z,1.30
2022-08-12T17:21:04.326Z,1.50
2022-08-12T17:26:06.406Z,1.33
2022-08-12T17:31:08.705Z,1.65
2022-08-12T17:36:10.674Z,1.50
2022-08-12T17:41:23.376Z,1.50
2022-08-12T17:46:34.371Z,1.60
2022-08-12T17:51:50.299Z,1.58
2022-08-12T17:57:01.386Z,1.55
2022-08-12T18:02:03.794Z,1.50
2022-08-12T18:07:08.546Z,1.52
2022-08-12T18:12:34.464Z,1.70
2022-08-12T18:17:39.066Z,3.03
2022-08-12T18:22:41.757Z,3.22
2022-08-12T18:27:46.825Z,2.45
2022-08-12T18:32:58.332Z,1.88
2022-08-12T18:38:04.945Z,1.55
2022-08-12T18:43:15.125Z,1.75
2022-08-12T18:48:20.960Z,1.30
2022-08-12T18:54:05.154Z,1.50
2022-08-12T18:58:59.705Z,1.67
2022-08-12T19:04:09.063Z,1.50
2022-08-12T19:09:14.612Z,1.75
2022-08-12T19:14:27.458Z,1.67
2022-08-12T19:19:38.874Z,1.65
2022-08-12T19:25:02.221Z,1.40
2022-08-12T19:30:09.187Z,1.80
2022-08-12T19:40:35.192Z,2.05
2022-08-12T19:45:43.881Z,2.10
2022-08-12T19:50:53.449Z,1.67
2022-08-12T19:55:57.388Z,1.73
2022-08-12T20:00:59.065Z,2.00
2022-08-12T20:06:06.434Z,1.80
2022-08-12T20:12:09.144Z,2.10
2022-08-12T20:21:58.851Z,1.88
2022-08-12T20:27:00.601Z,2.28
2022-08-12T20:32:05.987Z,2.42
2022-08-12T20:37:12.065Z,2.20
2022-08-12T20:42:13.803Z,1.90
2022-08-12T20:47:19.867Z,2.53
2022-08-12T20:52:25.304Z,2.25
2022-08-12T20:57:38.024Z,2.90
2022-08-12T21:02:50.011Z,2.33
2022-08-12T21:07:52.637Z,2.55
2022-08-12T21:12:54.273Z,3.20
2022-08-12T21:18:15.445Z,3.90
2022-08-12T21:23:23.347Z,2.65
2022-08-12T21:28:27.613Z,2.83
2022-08-12T21:33:58.802Z,2.45
2022-08-12T21:38:58.100Z,2.30
2022-08-12T21:44:01.646Z,2.33
2022-08-12T21:49:05.397Z,2.40
2022-08-12T21:54:10.018Z,2.38
2022-08-12T21:59:16.261Z,2.05
2022-08-12T22:04:36.930Z,2.20
2022-08-12T22:09:42.550Z,2.40
2022-08-12T22:14:45.265Z,2.88
2022-08-12T22:19:49.669Z,2.85
2022-08-12T22:24:51.808Z,2.60
2022-08-12T22:30:19.725Z,2.65
2022-08-12T22:35:55.892Z,3.25
2022-08-12T22:41:01.661Z,2.55
2022-08-12T22:46:22.688Z,2.50
2022-08-12T22:51:38.200Z,2.20
2022-08-12T22:56:55.057Z,2.58
2022-08-12T23:02:02.009Z,2.40
2022-08-12T23:07:05.508Z,2.25
2022-08-12T23:12:09.252Z,2.65
2022-08-12T23:17:40.879Z,2.72
2022-08-12T23:22:56.068Z,4.38
2022-08-12T23:28:29.979Z,2.90
2022-08-12T23:34:00.063Z,2.40
2022-08-12T23:38:58.714Z,3.00
2022-08-12T23:44:06.843Z,2.63
2022-08-12T23:49:26.877Z,2.83
2022-08-12T23:54:38.530Z,3.38
2022-08-12T23:59:43.441Z,2.80
